KSBPKHHR

Guest
Details From KSBP - San Luis Co Rgnl
To KHHR - Jack Northrop Fld Hawthorne Muni
Flight Number -
Tags generated
Created
Modified
Stats Distance 139 nm / 257 km
Max Altitude 11,200 ft / 3,414 m
Waypoints 3
Social Downloads 1
Likes 0
Share VATSIM

Download

Looking for another format? Having issues loading an existing format? Contact us
Advertisement - Login to hide

Notes

Basic altitude profile: - Ascent Rate: 1000ft/min - Ascent Speed: 88kts - Cruise Altitude: 7000ft - Cruise Speed: 88kts - Descent Rate: 500ft/min - Descent Speed: 120kts Options: - Use NATs: yes - Use PACOTS: yes - Use low airways: yes - Use high airways: yes

Route

KSBP OHIGH KHHR

ID Type Via Altitude Latitude Longitude Leg Dist Tot Dist Heading (true) Name
O KSBP APT - 0 ft / 0 m 35.23714˚ -120.64346˚ - 0 nm - San Luis Co Rgnl
OHIGH FIX - 11,200 ft / 3,414 m 34.43135˚ -119.31082˚ 81 nm 81 nm 126° / 127° -
O KHHR APT - 0 ft / 0 m 33.92286˚ -118.33516˚ 57 nm 138 nm 122° / 122° Jack Northrop Fld Hawthorne Muni

Altitude Profile

Advertisement - Login to hide

KSBP

Details ICAO KSBP (SBP)
Name San Luis Co Rgnl
Region United States
Timezone America/Los_Angeles (UTC-7.0)
Stats Elevation 212 ft / 65 m (AMSL)
Location 35.237141° -120.643460°
Runways 2
Magnetic Variation 12.639° E

METAR

KSBP 251056Z AUTO 00000KT 10SM SCT027 OVC039 11/09 A3010 RMK AO2 SLP192 T01060094

Decode

TAF

TAF AMD KSBP 250859Z 2509/2606 VRB03KT P6SM BKN021 OVC035 FM251100 VRB03KT P6SM VCSH BKN025 OVC035 FM251400 15006KT 6SM -SHRA BKN012 OVC025 FM251800 23006KT P6SM VCSH SCT015 BKN025 FM252100 29010KT P6SM BKN040 FM260400 VRB03KT P6SM SCT050

Decode

Departure Runways

ID Width Length Bearing (true) Bearing (mag) Surface Threshold Offset Overrun Length
07 98 ft / 30 m 2,522 ft / 769 m 89.79° 77.15° Asphalt 0 ft / 0 m 0 ft / 0 m
11 151 ft / 46 m 6,106 ft / 1,861 m 124.87° 112.23° Asphalt 801 ft / 244 m 600 ft / 183 m
25 98 ft / 30 m 2,522 ft / 769 m 269.80° 257.16° Asphalt 0 ft / 0 m 0 ft / 0 m
29 151 ft / 46 m 6,106 ft / 1,861 m 304.88° 292.24° Asphalt 499 ft / 152 m 600 ft / 183 m

KHHR

Details ICAO KHHR (HHR)
Name Jack Northrop Fld Hawthorne Muni
Region United States
Timezone America/Los_Angeles (UTC-7.0)
Stats Elevation 66 ft / 20 m (AMSL)
Location 33.922857° -118.335162°
Runways 1
Magnetic Variation 11.949° E

METAR

KHHR 251053Z AUTO 27004KT 10SM FEW030 OVC043 15/11 A3009 RMK AO2 SLP190 T01500106

Decode

TAF

Not found

Destination Runways

ID Width Length Bearing (true) Bearing (mag) Surface Threshold Offset Overrun Length
07 98 ft / 30 m 4,961 ft / 1,512 m 86.70° 74.75° Concrete 971 ft / 296 m 0 ft / 0 m
25 98 ft / 30 m 4,961 ft / 1,512 m 266.70° 254.75° Concrete 463 ft / 141 m 0 ft / 0 m

Approach Navaids

Runway Type Ident Frequency Range Bearing (true) Bearing (mag) Slope Elevation
25 Localiser IHHR 109.10 MHz 18 nm / 33 km 266.65° 254.70° - 66 ft / 20 m (AMSL)